createdAt,value
2022-08-17T00:00:15.796Z,19.40
2022-08-17T00:03:06.753Z,19.30
2022-08-17T00:05:38.898Z,19.30
2022-08-17T00:08:06.076Z,19.30
2022-08-17T00:10:33.370Z,19.30
2022-08-17T00:13:04.565Z,19.30
2022-08-17T00:15:31.401Z,19.20
2022-08-17T00:17:58.225Z,19.20
2022-08-17T00:20:30.589Z,19.20
2022-08-17T00:23:08.257Z,19.20
2022-08-17T00:25:35.249Z,19.20
2022-08-17T00:28:02.245Z,19.20
2022-08-17T00:30:30.082Z,19.20
2022-08-17T00:33:21.256Z,19.20
2022-08-17T00:35:49.571Z,19.20
2022-08-17T00:38:16.913Z,19.20
2022-08-17T00:40:55.911Z,19.20
2022-08-17T00:43:39.585Z,19.20
2022-08-17T00:46:30.026Z,19.20
2022-08-17T00:48:57.983Z,19.20
2022-08-17T00:51:36.747Z,19.20
2022-08-17T00:54:11.823Z,19.10
2022-08-17T00:56:44.758Z,19.10
2022-08-17T00:59:16.068Z,19.10
2022-08-17T01:01:43.336Z,19.10
2022-08-17T01:04:11.329Z,19.00
2022-08-17T01:06:38.721Z,19.00
2022-08-17T01:09:05.898Z,19.00
2022-08-17T01:11:33.250Z,19.00
2022-08-17T01:14:00.105Z,19.00
2022-08-17T01:16:31.513Z,19.00
2022-08-17T01:19:23.607Z,19.00
2022-08-17T01:22:07.591Z,19.00
2022-08-17T01:24:36.921Z,19.00
2022-08-17T01:27:10.441Z,18.90
2022-08-17T01:29:40.971Z,18.90
2022-08-17T01:32:08.785Z,18.90
2022-08-17T01:34:43.492Z,18.80
2022-08-17T01:37:13.141Z,18.80
2022-08-17T01:39:57.949Z,18.70
2022-08-17T01:42:36.566Z,18.70
2022-08-17T01:45:18.727Z,18.70
2022-08-17T01:47:45.904Z,18.70
2022-08-17T01:50:19.415Z,18.70
2022-08-17T01:52:49.353Z,18.70
2022-08-17T01:55:24.591Z,18.70
2022-08-17T01:57:53.984Z,18.60
2022-08-17T02:00:21.061Z,18.60
2022-08-17T02:02:48.081Z,18.60
2022-08-17T02:05:15.144Z,18.60
2022-08-17T02:07:47.975Z,18.60
2022-08-17T02:10:33.655Z,18.60
2022-08-17T02:13:03.346Z,18.60
2022-08-17T02:15:30.295Z,18.60
2022-08-17T02:17:57.165Z,18.50
2022-08-17T02:20:42.107Z,18.60
2022-08-17T02:23:11.871Z,18.50
2022-08-17T02:25:43.398Z,18.50
2022-08-17T02:28:11.102Z,18.50
2022-08-17T02:31:01.488Z,18.50
2022-08-17T02:33:24.983Z,18.50
2022-08-17T02:36:12.629Z,18.40
2022-08-17T02:38:40.693Z,18.40
2022-08-17T02:41:07.703Z,18.40
2022-08-17T02:43:34.963Z,18.40
2022-08-17T02:46:02.052Z,18.30
2022-08-17T02:48:31.493Z,18.40
2022-08-17T02:51:02.118Z,18.30
2022-08-17T02:53:36.057Z,18.30
2022-08-17T02:56:03.861Z,18.20
2022-08-17T02:58:34.930Z,18.20
2022-08-17T03:01:04.114Z,18.20
2022-08-17T03:03:30.959Z,18.20
2022-08-17T03:05:57.949Z,18.10
2022-08-17T03:08:25.574Z,18.10
2022-08-17T03:10:52.624Z,18.10
2022-08-17T03:13:20.126Z,18.10
2022-08-17T03:15:48.334Z,18.10
2022-08-17T03:18:24.336Z,18.00
2022-08-17T03:20:55.393Z,18.00
2022-08-17T03:23:24.258Z,18.00
2022-08-17T03:25:53.637Z,17.90
2022-08-17T03:28:22.259Z,17.90
2022-08-17T03:30:51.149Z,17.90
2022-08-17T03:33:18.626Z,17.90
2022-08-17T03:35:45.549Z,17.80
2022-08-17T03:38:15.053Z,17.80
2022-08-17T03:40:58.020Z,17.80
2022-08-17T03:43:30.201Z,17.80
2022-08-17T03:46:27.704Z,17.70
2022-08-17T03:49:21.097Z,17.70
2022-08-17T03:52:06.551Z,17.60
2022-08-17T03:54:52.226Z,17.70
2022-08-17T03:57:19.311Z,17.60
2022-08-17T03:59:46.507Z,17.60
2022-08-17T04:02:19.947Z,17.60
2022-08-17T04:04:50.809Z,17.60
2022-08-17T04:07:19.703Z,17.60
2022-08-17T04:09:46.897Z,17.60
2022-08-17T04:12:16.389Z,17.60
2022-08-17T04:14:51.940Z,17.50
2022-08-17T04:17:27.239Z,17.50
2022-08-17T04:19:55.073Z,17.60
2022-08-17T04:22:32.978Z,17.50
2022-08-17T04:25:13.655Z,17.60
2022-08-17T04:27:40.492Z,17.60
2022-08-17T04:30:08.098Z,17.60
2022-08-17T04:33:10.824Z,17.60
2022-08-17T04:35:59.840Z,17.70
2022-08-17T04:38:30.573Z,17.70
2022-08-17T04:41:17.196Z,17.70
2022-08-17T04:43:45.525Z,17.80
2022-08-17T04:46:15.122Z,17.80
2022-08-17T04:48:45.766Z,17.90
2022-08-17T04:51:17.180Z,17.90
2022-08-17T04:53:47.625Z,18.00
2022-08-17T04:56:21.608Z,18.10
2022-08-17T04:58:50.330Z,18.20
2022-08-17T05:01:24.025Z,18.20
2022-08-17T05:03:53.108Z,18.30
2022-08-17T05:06:20.186Z,18.40
2022-08-17T05:08:47.077Z,18.40
2022-08-17T05:11:14.725Z,18.50
2022-08-17T05:13:41.896Z,18.50
2022-08-17T05:16:09.203Z,18.60
2022-08-17T05:18:37.318Z,18.60
2022-08-17T05:21:04.702Z,18.70
2022-08-17T05:23:43.070Z,18.80
2022-08-17T05:26:26.516Z,18.90
2022-08-17T05:28:57.097Z,18.90
2022-08-17T05:31:26.655Z,19.00
2022-08-17T05:33:53.634Z,19.10
2022-08-17T05:36:41.934Z,19.10
2022-08-17T05:39:07.821Z,19.30
2022-08-17T05:41:34.596Z,19.40
2022-08-17T05:44:05.333Z,19.50
2022-08-17T05:46:39.932Z,19.60
2022-08-17T05:49:08.135Z,19.70
2022-08-17T05:51:41.157Z,19.70
2022-08-17T05:54:19.946Z,19.90
2022-08-17T05:57:11.607Z,19.90
2022-08-17T05:59:51.092Z,20.00
2022-08-17T06:02:47.658Z,20.20
2022-08-17T06:05:38.186Z,20.30
2022-08-17T06:08:20.223Z,20.40
2022-08-17T06:10:56.042Z,20.60
2022-08-17T06:13:35.223Z,20.70
2022-08-17T06:16:03.276Z,20.80
2022-08-17T06:18:44.095Z,20.80
2022-08-17T06:21:15.593Z,20.90
2022-08-17T06:23:48.631Z,21.10
2022-08-17T06:26:20.808Z,21.10
2022-08-17T06:29:02.769Z,21.30
2022-08-17T06:31:34.723Z,21.30
2022-08-17T06:34:04.302Z,21.40
2022-08-17T06:36:54.265Z,21.60
2022-08-17T06:39:59.933Z,21.70
2022-08-17T06:43:06.029Z,21.80
2022-08-17T06:45:54.224Z,21.90
2022-08-17T06:48:31.099Z,22.10
2022-08-17T06:51:06.530Z,22.20
2022-08-17T06:53:42.749Z,22.30
2022-08-17T06:56:20.306Z,22.30
2022-08-17T06:58:48.316Z,22.40
2022-08-17T07:01:26.891Z,22.50
2022-08-17T07:04:11.653Z,22.50
2022-08-17T07:06:46.945Z,22.60
2022-08-17T07:09:18.108Z,22.70
2022-08-17T07:12:01.875Z,22.70
2022-08-17T07:14:37.579Z,22.90
2022-08-17T07:17:12.095Z,23.10
2022-08-17T07:19:41.074Z,23.20
2022-08-17T07:22:57.603Z,23.30
2022-08-17T07:25:21.541Z,23.50
2022-08-17T07:27:54.639Z,23.60
2022-08-17T07:30:37.266Z,23.70
2022-08-17T07:33:21.000Z,23.80
2022-08-17T07:35:49.900Z,23.90
2022-08-17T07:38:32.122Z,24.00
2022-08-17T07:41:05.163Z,24.10
2022-08-17T07:43:48.400Z,24.20
2022-08-17T07:46:45.682Z,24.30
2022-08-17T07:49:15.303Z,24.50
2022-08-17T07:51:45.797Z,24.70
2022-08-17T07:54:15.627Z,24.90
2022-08-17T07:56:48.711Z,25.10
2022-08-17T07:59:23.347Z,25.20
2022-08-17T08:01:58.094Z,25.30
2022-08-17T08:05:00.171Z,25.20
2022-08-17T08:07:21.148Z,25.30
2022-08-17T08:10:06.831Z,25.30
2022-08-17T08:12:38.745Z,25.60
2022-08-17T08:15:23.235Z,25.80
2022-08-17T08:17:59.291Z,26.00
2022-08-17T08:20:53.855Z,26.20
2022-08-17T08:23:45.624Z,26.10
2022-08-17T08:26:18.628Z,26.20
2022-08-17T08:29:00.340Z,26.30
2022-08-17T08:31:32.947Z,26.40
2022-08-17T08:35:00.614Z,26.40
2022-08-17T08:37:22.738Z,26.50
2022-08-17T08:40:11.033Z,26.70
2022-08-17T08:42:45.759Z,26.70
2022-08-17T08:45:16.373Z,26.90
2022-08-17T08:48:55.879Z,26.90
2022-08-17T08:51:42.276Z,26.90
2022-08-17T08:54:47.588Z,26.90
2022-08-17T08:57:37.845Z,27.00
2022-08-17T09:00:14.810Z,27.10
2022-08-17T09:03:17.039Z,27.20
2022-08-17T09:05:58.627Z,27.30
2022-08-17T09:08:53.542Z,27.40
2022-08-17T09:11:28.809Z,27.50
2022-08-17T09:14:21.033Z,27.70
2022-08-17T09:17:13.001Z,27.80
2022-08-17T09:19:47.997Z,27.90
2022-08-17T09:22:42.713Z,28.00
2022-08-17T09:25:22.082Z,28.30
2022-08-17T09:28:03.921Z,28.50
2022-08-17T09:30:55.330Z,28.80
2022-08-17T09:33:28.273Z,29.10
2022-08-17T09:36:11.750Z,29.30
2022-08-17T09:38:44.293Z,29.60
2022-08-17T09:41:56.124Z,29.60
2022-08-17T09:44:44.103Z,29.70
2022-08-17T09:47:34.574Z,29.80
2022-08-17T09:51:03.139Z,29.90
2022-08-17T09:53:09.359Z,30.00
2022-08-17T09:55:59.455Z,30.00
2022-08-17T09:58:47.643Z,30.10
2022-08-17T10:01:37.379Z,30.20
2022-08-17T10:04:10.026Z,30.20
2022-08-17T10:07:16.043Z,30.20
2022-08-17T10:09:57.756Z,30.20
2022-08-17T10:12:59.174Z,30.30
2022-08-17T10:15:28.884Z,30.60
2022-08-17T10:18:07.421Z,30.50
2022-08-17T10:21:19.423Z,30.60
2022-08-17T10:24:09.178Z,30.60
2022-08-17T10:26:55.328Z,30.60
2022-08-17T10:30:04.722Z,30.50
2022-08-17T10:32:49.080Z,30.40
2022-08-17T10:35:37.041Z,30.40
2022-08-17T10:38:41.920Z,30.40
2022-08-17T10:41:47.757Z,30.40
2022-08-17T10:44:40.320Z,30.40
2022-08-17T10:47:16.743Z,30.50
2022-08-17T10:49:54.274Z,30.40
2022-08-17T10:52:24.952Z,30.50
2022-08-17T10:54:56.683Z,30.50
2022-08-17T10:57:36.682Z,30.50
2022-08-17T11:00:35.924Z,30.60
2022-08-17T11:03:14.504Z,30.60
2022-08-17T11:06:22.896Z,30.70
2022-08-17T11:09:09.928Z,30.90
2022-08-17T11:11:45.356Z,31.00
2022-08-17T11:14:33.912Z,31.10
2022-08-17T11:17:45.490Z,31.10
2022-08-17T11:20:45.792Z,31.10
2022-08-17T11:23:36.174Z,31.10
2022-08-17T11:26:17.921Z,31.40
2022-08-17T11:28:52.702Z,31.50
2022-08-17T11:31:46.550Z,31.70
2022-08-17T11:34:26.447Z,31.80
2022-08-17T11:37:03.901Z,31.80
2022-08-17T11:39:39.296Z,31.80
2022-08-17T11:42:25.470Z,31.80
2022-08-17T11:45:03.356Z,31.80
2022-08-17T11:48:27.407Z,31.70
2022-08-17T11:51:24.350Z,31.70
2022-08-17T11:54:03.572Z,31.80
2022-08-17T11:56:49.200Z,31.90
2022-08-17T11:59:37.057Z,32.00
2022-08-17T12:02:25.293Z,32.20
2022-08-17T12:05:12.471Z,32.20
2022-08-17T12:08:19.693Z,32.10
2022-08-17T12:11:06.191Z,32.10
2022-08-17T12:13:45.172Z,32.20
2022-08-17T12:16:20.191Z,32.30
2022-08-17T12:19:06.046Z,32.40
2022-08-17T12:21:53.829Z,32.70
2022-08-17T12:24:47.197Z,32.80
2022-08-17T12:28:04.110Z,32.80
2022-08-17T12:30:15.080Z,32.90
2022-08-17T12:32:46.073Z,32.90
2022-08-17T12:35:21.728Z,32.70
2022-08-17T12:37:50.469Z,32.70
2022-08-17T12:40:22.587Z,32.70
2022-08-17T12:43:02.474Z,32.30
2022-08-17T12:45:35.731Z,32.20
2022-08-17T12:48:21.803Z,32.30
2022-08-17T12:50:50.933Z,32.40
2022-08-17T12:53:27.290Z,32.70
2022-08-17T12:55:56.228Z,32.90
2022-08-17T12:58:26.713Z,33.10
2022-08-17T13:01:08.849Z,33.40
2022-08-17T13:03:39.867Z,33.70
2022-08-17T13:06:14.536Z,33.90
2022-08-17T13:08:43.644Z,33.70
2022-08-17T13:11:19.227Z,33.70
2022-08-17T13:13:50.845Z,33.80
2022-08-17T13:16:22.648Z,33.70
2022-08-17T13:18:55.083Z,33.60
2022-08-17T13:21:30.470Z,33.30
2022-08-17T13:24:11.058Z,33.30
2022-08-17T13:26:41.860Z,33.10
2022-08-17T13:29:32.248Z,33.10
2022-08-17T13:32:12.995Z,33.00
2022-08-17T13:35:12.516Z,32.90
2022-08-17T13:38:01.359Z,32.80
2022-08-17T13:40:53.247Z,32.80
2022-08-17T13:43:39.263Z,32.80
2022-08-17T13:46:32.557Z,32.70
2022-08-17T13:49:06.443Z,32.50
2022-08-17T13:51:41.399Z,32.30
2022-08-17T13:54:29.632Z,32.10
2022-08-17T13:56:57.879Z,32.10
2022-08-17T13:59:54.785Z,32.00
2022-08-17T14:02:27.773Z,31.80
2022-08-17T14:04:56.635Z,31.70
2022-08-17T14:07:29.006Z,31.80
2022-08-17T14:10:00.329Z,32.00
2022-08-17T14:12:30.712Z,32.20
2022-08-17T14:14:59.488Z,32.30
2022-08-17T14:17:28.921Z,32.50
2022-08-17T14:19:56.023Z,32.70
2022-08-17T14:22:33.105Z,32.90
2022-08-17T14:25:04.092Z,33.10
2022-08-17T14:27:47.113Z,33.10
2022-08-17T14:30:22.306Z,33.00
2022-08-17T14:32:51.645Z,32.90
2022-08-17T14:35:22.599Z,32.80
2022-08-17T14:37:50.666Z,32.70
2022-08-17T14:40:20.970Z,32.70
2022-08-17T14:42:48.254Z,32.40
2022-08-17T14:45:31.723Z,32.30
2022-08-17T14:48:01.284Z,32.30
2022-08-17T14:50:28.071Z,32.20
2022-08-17T14:52:59.192Z,32.10
2022-08-17T14:55:28.361Z,32.10
2022-08-17T14:57:55.202Z,32.20
2022-08-17T15:00:22.187Z,32.00
2022-08-17T15:02:55.814Z,32.00
2022-08-17T15:05:25.218Z,31.80
2022-08-17T15:07:55.831Z,31.80
2022-08-17T15:10:25.606Z,31.80
2022-08-17T15:12:52.788Z,31.60
2022-08-17T15:15:20.263Z,31.60
2022-08-17T15:17:47.135Z,31.50
2022-08-17T15:20:18.206Z,31.20
2022-08-17T15:22:46.861Z,31.00
2022-08-17T15:25:14.050Z,30.90
2022-08-17T15:27:41.373Z,30.60
2022-08-17T15:30:10.071Z,30.40
2022-08-17T15:32:39.290Z,30.20
2022-08-17T15:35:07.702Z,30.00
2022-08-17T15:37:36.405Z,29.80
2022-08-17T15:40:04.132Z,29.60
2022-08-17T15:42:30.963Z,29.50
2022-08-17T15:44:59.906Z,29.40
2022-08-17T15:47:26.829Z,29.30
2022-08-17T15:49:59.481Z,29.20
2022-08-17T15:52:30.047Z,29.20
2022-08-17T15:54:59.945Z,29.10
2022-08-17T15:57:27.710Z,29.00
2022-08-17T15:59:58.584Z,28.90
2022-08-17T16:03:46.050Z,28.60
2022-08-17T16:05:21.960Z,27.90
2022-08-17T16:07:51.417Z,26.70
2022-08-17T16:10:19.415Z,24.80
2022-08-17T16:12:48.033Z,23.90
2022-08-17T16:15:15.515Z,23.10
2022-08-17T16:17:42.698Z,22.70
2022-08-17T16:20:20.332Z,22.60
2022-08-17T16:22:50.111Z,22.50
2022-08-17T16:25:52.340Z,22.40
2022-08-17T16:28:16.817Z,22.40
2022-08-17T16:30:43.647Z,22.40
2022-08-17T16:33:11.661Z,22.40
2022-08-17T16:35:41.886Z,22.30
2022-08-17T16:38:09.551Z,22.40
2022-08-17T16:40:38.129Z,22.40
2022-08-17T16:43:10.564Z,22.50
2022-08-17T16:45:40.243Z,22.70
2022-08-17T16:48:08.078Z,22.70
2022-08-17T16:50:35.916Z,22.70
2022-08-17T16:53:17.330Z,22.80
2022-08-17T16:55:45.652Z,22.70
2022-08-17T16:58:12.620Z,22.80
2022-08-17T17:00:39.642Z,22.90
2022-08-17T17:03:19.173Z,23.00
2022-08-17T17:06:01.567Z,22.90
2022-08-17T17:08:49.572Z,22.90
2022-08-17T17:11:26.041Z,22.90
2022-08-17T17:14:02.393Z,22.80
2022-08-17T17:16:29.265Z,22.80
2022-08-17T17:18:56.020Z,22.80
2022-08-17T17:21:32.118Z,22.80
2022-08-17T17:27:02.612Z,22.80
2022-08-17T17:29:52.764Z,22.70
2022-08-17T17:32:25.552Z,22.70
2022-08-17T17:35:00.108Z,22.70
2022-08-17T17:37:33.891Z,22.60
2022-08-17T17:40:19.091Z,22.70
2022-08-17T17:42:46.772Z,22.70
2022-08-17T17:45:20.227Z,22.70
2022-08-17T17:47:47.577Z,22.70
2022-08-17T17:50:18.001Z,22.70
2022-08-17T17:53:03.683Z,22.70
2022-08-17T17:55:30.536Z,22.70
2022-08-17T17:58:09.340Z,22.60
2022-08-17T18:00:54.117Z,22.50
2022-08-17T18:03:59.038Z,22.40
2022-08-17T18:06:50.513Z,22.30
2022-08-17T18:09:26.226Z,22.30
2022-08-17T18:11:59.140Z,22.10
2022-08-17T18:14:49.777Z,22.10
2022-08-17T18:17:18.217Z,21.90
2022-08-17T18:19:45.292Z,21.80
2022-08-17T18:22:18.949Z,21.70
2022-08-17T18:24:55.980Z,21.60
2022-08-17T18:27:39.037Z,21.50
2022-08-17T18:30:14.877Z,21.30
2022-08-17T18:32:43.698Z,21.30
2022-08-17T18:35:16.632Z,21.20
2022-08-17T18:37:52.731Z,21.10
2022-08-17T18:40:19.900Z,21.10
2022-08-17T18:43:05.654Z,20.90
2022-08-17T18:45:41.024Z,20.90
2022-08-17T18:48:32.972Z,20.80
2022-08-17T18:51:21.581Z,20.70
2022-08-17T18:54:09.300Z,20.70
2022-08-17T18:56:40.386Z,20.60
2022-08-17T18:59:12.130Z,20.50
2022-08-17T19:02:10.184Z,20.50
2022-08-17T19:05:22.879Z,20.50
2022-08-17T19:07:49.969Z,20.40
2022-08-17T19:10:28.757Z,20.30
2022-08-17T19:13:14.569Z,20.30
2022-08-17T19:16:14.714Z,20.20
2022-08-17T19:18:52.251Z,20.10
2022-08-17T19:21:33.021Z,20.10
2022-08-17T19:24:13.476Z,20.10
2022-08-17T19:26:53.609Z,20.10
2022-08-17T19:29:51.327Z,20.00
2022-08-17T19:32:24.471Z,20.00
2022-08-17T19:34:52.223Z,20.00
2022-08-17T19:37:42.062Z,20.00
2022-08-17T19:40:29.201Z,20.00
2022-08-17T19:43:02.402Z,20.00
2022-08-17T19:45:35.063Z,19.90
2022-08-17T19:48:17.438Z,19.90
2022-08-17T19:50:48.214Z,19.90
2022-08-17T19:53:41.748Z,19.90
2022-08-17T19:56:22.061Z,19.80
2022-08-17T19:59:07.655Z,19.80
2022-08-17T20:01:54.758Z,19.70
2022-08-17T20:04:31.853Z,19.70
2022-08-17T20:07:08.237Z,19.60
2022-08-17T20:09:39.255Z,19.60
2022-08-17T20:12:12.299Z,19.60
2022-08-17T20:14:53.926Z,19.60
2022-08-17T20:17:31.643Z,19.60
2022-08-17T20:20:03.958Z,19.50
2022-08-17T20:22:52.444Z,19.50
2022-08-17T20:25:30.932Z,19.50
2022-08-17T20:28:06.905Z,19.50
2022-08-17T20:30:43.683Z,19.50
2022-08-17T20:33:42.909Z,19.50
2022-08-17T20:36:24.845Z,19.50
2022-08-17T20:38:57.127Z,19.50
2022-08-17T20:41:30.365Z,19.40
2022-08-17T20:43:57.138Z,19.40
2022-08-17T20:46:27.557Z,19.30
2022-08-17T20:48:59.746Z,19.30
2022-08-17T20:51:27.299Z,19.30
2022-08-17T20:53:54.058Z,19.20
2022-08-17T20:56:43.373Z,19.20
2022-08-17T20:59:31.616Z,19.20
2022-08-17T21:02:17.548Z,19.10
2022-08-17T21:04:50.833Z,19.10
2022-08-17T21:07:42.627Z,19.10
2022-08-17T21:10:25.156Z,19.00
2022-08-17T21:13:24.277Z,19.00
2022-08-17T21:16:22.885Z,18.90
2022-08-17T21:19:22.114Z,18.90
2022-08-17T21:22:25.637Z,18.90
2022-08-17T21:25:13.530Z,18.90
2022-08-17T21:27:46.037Z,18.80
2022-08-17T21:30:29.604Z,18.80
2022-08-17T21:33:18.798Z,18.80
2022-08-17T21:35:54.579Z,18.80
2022-08-17T21:38:49.047Z,18.70
2022-08-17T21:41:34.707Z,18.70
2022-08-17T21:44:18.988Z,18.70
2022-08-17T21:46:50.207Z,18.70
2022-08-17T21:49:19.854Z,18.70
2022-08-17T21:51:56.363Z,18.70
2022-08-17T21:54:35.751Z,18.60
2022-08-17T21:57:06.931Z,18.60
2022-08-17T21:59:40.395Z,18.60
2022-08-17T22:02:16.530Z,18.60
2022-08-17T22:04:54.983Z,18.60
2022-08-17T22:07:48.453Z,18.50
2022-08-17T22:10:37.808Z,18.50
2022-08-17T22:13:17.381Z,18.50
2022-08-17T22:16:28.380Z,18.50
2022-08-17T22:18:58.151Z,18.50
2022-08-17T22:21:25.537Z,18.40
2022-08-17T22:24:04.937Z,18.40
2022-08-17T22:26:57.413Z,18.40
2022-08-17T22:29:43.072Z,18.40
2022-08-17T22:32:10.115Z,18.40
2022-08-17T22:34:38.972Z,18.40
2022-08-17T22:37:29.135Z,18.50
2022-08-17T22:39:59.822Z,18.40
2022-08-17T22:42:28.526Z,18.40
2022-08-17T22:44:55.362Z,18.40
2022-08-17T22:47:48.524Z,18.40
2022-08-17T22:50:25.915Z,18.40
2022-08-17T22:53:35.643Z,18.40
2022-08-17T22:56:21.964Z,18.30
2022-08-17T22:59:13.243Z,18.30
2022-08-17T23:01:41.986Z,18.30
2022-08-17T23:04:13.291Z,18.30
2022-08-17T23:06:43.633Z,18.30
2022-08-17T23:09:10.461Z,18.20
2022-08-17T23:11:49.033Z,18.20
2022-08-17T23:14:19.087Z,18.20
2022-08-17T23:16:47.187Z,18.20
2022-08-17T23:19:16.917Z,18.20
2022-08-17T23:21:48.143Z,18.30
2022-08-17T23:24:20.739Z,18.30
2022-08-17T23:26:47.531Z,18.30
2022-08-17T23:29:14.555Z,18.30
2022-08-17T23:31:41.620Z,18.30
2022-08-17T23:34:13.981Z,18.30
2022-08-17T23:36:41.499Z,18.30
2022-08-17T23:39:08.374Z,18.30
2022-08-17T23:41:38.499Z,18.20
2022-08-17T23:44:06.493Z,18.30
2022-08-17T23:46:34.641Z,18.30
2022-08-17T23:49:01.602Z,18.30
2022-08-17T23:51:33.462Z,18.20
2022-08-17T23:54:21.386Z,18.20
2022-08-17T23:56:48.320Z,18.30
2022-08-17T23:59:20.174Z,18.20
